Terminal Aerodrome Forecast
Issued by NWS

Home | Current Version | Previous Version | Text Only | Print | Product List | Glossary On
Versions: 1 2 3 4 5 6 7 8 9 10 11 12 13 14 15 16 17 18 19 20 21 22 23 24 25 26 27 28 29
000
FTUS43 KLSX 242322
TAFUIN
TAF
KUIN 242322Z 2500/2524 29013G22KT P6SM VCSH OVC015
     FM250500 31018G25KT P6SM OVC015
     FM251500 31017G24KT P6SM BKN025
     FM251700 31015G23KT P6SM SCT150
     FM252300 30008KT P6SM FEW200=

USA.gov is the U.S. government's official web portal to all federal, state and local government web resources and services.